QFA234 YBBN-YBMK
Flight info
| Callsign | QFA234 |
|---|---|
| Flight time | 1h 15m |
| Altitude | 38000 |
| Route | BIXAD2/19R BIXAD Q67 RUNLA Q493 EMSUP V308 MK |
| Aircraft | B738/M-SDE2E3FGHIRWXY/LB1 |
Departure
| Time | 2026-04-24 05:13 |
|---|---|
| Airport | Brisbane International Airport (YBBN) |
Arrival
| Time | 2026-04-24 06:29 |
|---|---|
| Airport | Mackay Airport (YBMK) |
| Time | Latitude | Longitude | Altitude | Speed | Heading |
|---|---|---|---|---|---|
| 2026-04-24 04:31 | -27.38433 | 153.12143 | 17 ft | 0 kts | 270° |
| 2026-04-24 04:53 | -27.38433 | 153.12158 | 17 ft | 3 kts | 270° |
| 2026-04-24 04:53 | -27.38433 | 153.12181 | 17 ft | 3 kts | 270° |
| 2026-04-24 04:54 | -27.38434 | 153.12202 | 17 ft | 3 kts | 280° |
| 2026-04-24 04:54 | -27.38439 | 153.12224 | 19 ft | 3 kts | 299° |
| 2026-04-24 04:54 | -27.38451 | 153.12241 | 18 ft | 3 kts | 322° |
| 2026-04-24 04:54 | -27.38462 | 153.12250 | 19 ft | 1 kts | 334° |
| 2026-04-24 04:55 | -27.38466 | 153.12252 | 17 ft | 0 kts | 334° |
| 2026-04-24 04:59 | -27.38461 | 153.12252 | 19 ft | 2 kts | 4° |
| 2026-04-24 04:59 | -27.38441 | 153.12276 | 18 ft | 7 kts | 58° |
| 2026-04-24 04:59 | -27.38430 | 153.12340 | 17 ft | 9 kts | 88° |
| 2026-04-24 05:00 | -27.38434 | 153.12398 | 17 ft | 6 kts | 105° |
| 2026-04-24 05:00 | -27.38424 | 153.12430 | 17 ft | 5 kts | 14° |
| 2026-04-24 05:00 | -27.38388 | 153.12421 | 17 ft | 6 kts | 345° |
| 2026-04-24 05:00 | -27.38344 | 153.12410 | 17 ft | 8 kts | 348° |
| 2026-04-24 05:01 | -27.38287 | 153.12415 | 17 ft | 9 kts | 36° |
| 2026-04-24 05:01 | -27.38279 | 153.12475 | 18 ft | 8 kts | 111° |
| 2026-04-24 05:01 | -27.38304 | 153.12533 | 17 ft | 8 kts | 116° |
| 2026-04-24 05:01 | -27.38294 | 153.12590 | 17 ft | 8 kts | 46° |
| 2026-04-24 05:02 | -27.38240 | 153.12626 | 18 ft | 11 kts | 27° |
| 2026-04-24 05:02 | -27.38156 | 153.12673 | 18 ft | 16 kts | 26° |
| 2026-04-24 05:02 | -27.38051 | 153.12733 | 17 ft | 17 kts | 27° |
| 2026-04-24 05:02 | -27.37958 | 153.12765 | 17 ft | 13 kts | 337° |
| 2026-04-24 05:03 | -27.37910 | 153.12687 | 18 ft | 12 kts | 297° |
| 2026-04-24 05:03 | -27.37872 | 153.12601 | 17 ft | 13 kts | 297° |
| 2026-04-24 05:03 | -27.37826 | 153.12501 | 18 ft | 16 kts | 297° |
| 2026-04-24 05:03 | -27.37768 | 153.12374 | 17 ft | 20 kts | 297° |
| 2026-04-24 05:04 | -27.37694 | 153.12210 | 17 ft | 25 kts | 297° |
| 2026-04-24 05:04 | -27.37617 | 153.12039 | 17 ft | 23 kts | 297° |
| 2026-04-24 05:04 | -27.37555 | 153.11903 | 17 ft | 13 kts | 297° |
| 2026-04-24 05:04 | -27.37517 | 153.11819 | 17 ft | 11 kts | 298° |
| 2026-04-24 05:05 | -27.37482 | 153.11741 | 17 ft | 12 kts | 297° |
| 2026-04-24 05:05 | -27.37440 | 153.11651 | 17 ft | 15 kts | 296° |
| 2026-04-24 05:05 | -27.37403 | 153.11570 | 17 ft | 9 kts | 305° |
| 2026-04-24 05:05 | -27.37347 | 153.11560 | 17 ft | 9 kts | 21° |
| 2026-04-24 05:06 | -27.37281 | 153.11596 | 17 ft | 13 kts | 26° |
| 2026-04-24 05:06 | -27.37176 | 153.11656 | 18 ft | 19 kts | 27° |
| 2026-04-24 05:06 | -27.37061 | 153.11722 | 18 ft | 18 kts | 27° |
| 2026-04-24 05:06 | -27.36949 | 153.11785 | 17 ft | 18 kts | 27° |
| 2026-04-24 05:07 | -27.36842 | 153.11847 | 17 ft | 17 kts | 27° |
| 2026-04-24 05:07 | -27.36731 | 153.11910 | 18 ft | 19 kts | 27° |
| 2026-04-24 05:07 | -27.36609 | 153.11981 | 17 ft | 21 kts | 27° |
| 2026-04-24 05:07 | -27.36473 | 153.12058 | 17 ft | 23 kts | 26° |
| 2026-04-24 05:08 | -27.36325 | 153.12143 | 18 ft | 25 kts | 27° |
| 2026-04-24 05:08 | -27.36167 | 153.12235 | 18 ft | 26 kts | 26° |
| 2026-04-24 05:08 | -27.36053 | 153.12300 | 18 ft | 12 kts | 28° |
| 2026-04-24 05:08 | -27.35990 | 153.12336 | 17 ft | 2 kts | 26° |
| 2026-04-24 05:09 | -27.35973 | 153.12344 | 17 ft | 4 kts | 25° |
| 2026-04-24 05:09 | -27.35916 | 153.12377 | 17 ft | 13 kts | 27° |
| 2026-04-24 05:09 | -27.35846 | 153.12368 | 17 ft | 10 kts | 327° |
| 2026-04-24 05:09 | -27.35784 | 153.12317 | 17 ft | 12 kts | 324° |
| 2026-04-24 05:10 | -27.35757 | 153.12296 | 17 ft | 0 kts | 325° |
| 2026-04-24 05:11 | -27.35745 | 153.12287 | 17 ft | 8 kts | 325° |
| 2026-04-24 05:11 | -27.35692 | 153.12231 | 18 ft | 10 kts | 299° |
| 2026-04-24 05:11 | -27.35691 | 153.12182 | 21 ft | 6 kts | 227° |
| 2026-04-24 05:11 | -27.35713 | 153.12167 | 20 ft | 0 kts | 206° |
| 2026-04-24 05:12 | -27.35722 | 153.12162 | 19 ft | 11 kts | 206° |
| 2026-04-24 05:12 | -27.35998 | 153.12005 | 22 ft | 76 kts | 207° |
| 2026-04-24 05:12 | -27.36625 | 153.11646 | 17 ft | 126 kts | 207° |
| 2026-04-24 05:13 | -27.38418 | 153.10639 | 976 ft | 140 kts | 200° |
| 2026-04-24 05:13 | -27.39367 | 153.10109 | 1353 ft | 159 kts | 203° |
| 2026-04-24 05:13 | -27.40408 | 153.09503 | 1800 ft | 175 kts | 202° |
| 2026-04-24 05:14 | -27.41566 | 153.08835 | 2043 ft | 200 kts | 202° |
| 2026-04-24 05:14 | -27.42871 | 153.08085 | 2246 ft | 218 kts | 202° |
| 2026-04-24 05:14 | -27.44267 | 153.07282 | 2582 ft | 230 kts | 203° |
| 2026-04-24 05:14 | -27.45710 | 153.06454 | 3140 ft | 239 kts | 203° |
| 2026-04-24 05:15 | -27.47193 | 153.05597 | 3919 ft | 238 kts | 206° |
| 2026-04-24 05:15 | -27.48427 | 153.04312 | 4663 ft | 251 kts | 234° |
| 2026-04-24 05:15 | -27.49019 | 153.02429 | 5386 ft | 263 kts | 259° |
| 2026-04-24 05:15 | -27.48907 | 153.00327 | 6085 ft | 272 kts | 275° |
| 2026-04-24 05:16 | -27.48597 | 152.98226 | 6892 ft | 273 kts | 275° |
| 2026-04-24 05:16 | -27.48285 | 152.96104 | 7602 ft | 277 kts | 276° |
| 2026-04-24 05:16 | -27.47968 | 152.93964 | 8302 ft | 282 kts | 279° |
| 2026-04-24 05:16 | -27.47135 | 152.91943 | 9041 ft | 292 kts | 308° |
| 2026-04-24 05:17 | -27.45529 | 152.90534 | 9822 ft | 297 kts | 335° |
| 2026-04-24 05:17 | -27.43520 | 152.89976 | 10522 ft | 300 kts | 2° |
| 2026-04-24 05:17 | -27.41520 | 152.90501 | 11275 ft | 295 kts | 30° |
| 2026-04-24 05:17 | -27.39797 | 152.91827 | 11632 ft | 310 kts | 49° |
| 2026-04-24 05:18 | -27.38482 | 152.93821 | 11829 ft | 328 kts | 63° |
| 2026-04-24 05:18 | -27.37306 | 152.96116 | 12077 ft | 347 kts | 63° |
| 2026-04-24 05:18 | -27.36057 | 152.98485 | 12689 ft | 355 kts | 62° |
| 2026-04-24 05:18 | -27.34720 | 153.00841 | 13447 ft | 359 kts | 60° |
| 2026-04-24 05:19 | -27.33322 | 153.03154 | 14213 ft | 363 kts | 58° |
| 2026-04-24 05:19 | -27.31861 | 153.05496 | 14922 ft | 368 kts | 58° |
| 2026-04-24 05:19 | -27.30371 | 153.07861 | 15721 ft | 372 kts | 58° |
| 2026-04-24 05:19 | -27.28789 | 153.10183 | 16508 ft | 378 kts | 49° |
| 2026-04-24 05:20 | -27.26833 | 153.12181 | 17249 ft | 383 kts | 43° |
| 2026-04-24 05:20 | -27.24755 | 153.14091 | 17950 ft | 387 kts | 42° |
| 2026-04-24 05:20 | -27.22668 | 153.16042 | 18560 ft | 393 kts | 43° |
| 2026-04-24 05:20 | -27.20364 | 153.17751 | 19111 ft | 403 kts | 25° |
| 2026-04-24 05:21 | -27.17681 | 153.18712 | 19783 ft | 405 kts | 18° |
| 2026-04-24 05:21 | -27.14965 | 153.19608 | 20389 ft | 409 kts | 18° |
| 2026-04-24 05:21 | -27.12225 | 153.20536 | 20927 ft | 414 kts | 18° |
| 2026-04-24 05:21 | -27.09493 | 153.21487 | 21477 ft | 418 kts | 18° |
| 2026-04-24 05:22 | -27.06706 | 153.22469 | 22032 ft | 422 kts | 17° |
| 2026-04-24 05:22 | -27.03890 | 153.23463 | 22593 ft | 425 kts | 17° |
| 2026-04-24 05:22 | -27.00982 | 153.24085 | 23104 ft | 426 kts | 0° |
| 2026-04-24 05:22 | -26.98007 | 153.24113 | 23687 ft | 429 kts | 358° |
| 2026-04-24 05:23 | -26.95020 | 153.24122 | 24196 ft | 431 kts | 358° |
| 2026-04-24 05:23 | -26.92007 | 153.24145 | 24673 ft | 433 kts | 359° |
| 2026-04-24 05:23 | -26.88983 | 153.24186 | 25107 ft | 436 kts | 359° |
| 2026-04-24 05:23 | -26.85930 | 153.24242 | 25524 ft | 439 kts | 359° |
| 2026-04-24 05:24 | -26.82864 | 153.24306 | 25974 ft | 441 kts | 359° |
| 2026-04-24 05:24 | -26.79778 | 153.24373 | 26358 ft | 445 kts | 359° |
| 2026-04-24 05:24 | -26.76668 | 153.24440 | 26727 ft | 449 kts | 359° |
| 2026-04-24 05:24 | -26.73538 | 153.24507 | 27150 ft | 450 kts | 359° |
| 2026-04-24 05:25 | -26.70399 | 153.24569 | 27601 ft | 452 kts | 358° |
| 2026-04-24 05:25 | -26.67286 | 153.24174 | 27947 ft | 451 kts | 342° |
| 2026-04-24 05:25 | -26.64325 | 153.23142 | 28352 ft | 451 kts | 339° |
| 2026-04-24 05:25 | -26.61332 | 153.22038 | 28722 ft | 454 kts | 339° |
| 2026-04-24 05:26 | -26.58325 | 153.20935 | 29093 ft | 456 kts | 339° |
| 2026-04-24 05:26 | -26.55298 | 153.19849 | 29465 ft | 458 kts | 340° |
| 2026-04-24 05:26 | -26.52261 | 153.18783 | 29922 ft | 457 kts | 340° |
| 2026-04-24 05:26 | -26.49207 | 153.17725 | 30312 ft | 458 kts | 340° |
| 2026-04-24 05:27 | -26.46151 | 153.16673 | 30583 ft | 461 kts | 340° |
| 2026-04-24 05:27 | -26.43118 | 153.15631 | 30829 ft | 463 kts | 340° |
| 2026-04-24 05:27 | -26.40028 | 153.14569 | 31088 ft | 465 kts | 340° |
| 2026-04-24 05:27 | -26.36926 | 153.13503 | 31382 ft | 466 kts | 340° |
| 2026-04-24 05:28 | -26.33824 | 153.12436 | 31733 ft | 465 kts | 340° |
| 2026-04-24 05:28 | -26.30726 | 153.11367 | 31985 ft | 467 kts | 339° |
| 2026-04-24 05:28 | -26.27717 | 153.10013 | 32274 ft | 464 kts | 330° |
| 2026-04-24 05:28 | -26.24967 | 153.08167 | 32718 ft | 456 kts | 321° |
| 2026-04-24 05:29 | -26.22487 | 153.06092 | 33376 ft | 448 kts | 320° |
| 2026-04-24 05:29 | -26.20010 | 153.04001 | 33758 ft | 447 kts | 320° |
| 2026-04-24 05:29 | -26.17510 | 153.01912 | 33964 ft | 450 kts | 320° |
| 2026-04-24 05:29 | -26.14988 | 152.99833 | 34198 ft | 451 kts | 320° |
| 2026-04-24 05:30 | -26.12455 | 152.97765 | 34508 ft | 450 kts | 320° |
| 2026-04-24 05:30 | -26.09933 | 152.95714 | 34830 ft | 448 kts | 320° |
| 2026-04-24 05:30 | -26.07404 | 152.93676 | 35091 ft | 449 kts | 320° |
| 2026-04-24 05:30 | -26.04869 | 152.91642 | 35313 ft | 449 kts | 320° |
| 2026-04-24 05:31 | -26.02362 | 152.89635 | 35551 ft | 449 kts | 320° |
| 2026-04-24 05:31 | -25.99820 | 152.87601 | 35841 ft | 448 kts | 320° |
| 2026-04-24 05:31 | -25.97289 | 152.85575 | 36115 ft | 448 kts | 320° |
| 2026-04-24 05:31 | -25.94760 | 152.83549 | 36348 ft | 448 kts | 320° |
| 2026-04-24 05:32 | -25.92225 | 152.81519 | 36526 ft | 448 kts | 320° |
| 2026-04-24 05:32 | -25.89688 | 152.79487 | 36712 ft | 450 kts | 319° |
| 2026-04-24 05:32 | -25.87152 | 152.77458 | 36956 ft | 449 kts | 319° |
| 2026-04-24 05:32 | -25.84651 | 152.75457 | 37215 ft | 448 kts | 319° |
| 2026-04-24 05:33 | -25.82112 | 152.73427 | 37449 ft | 448 kts | 319° |
| 2026-04-24 05:33 | -25.79580 | 152.71404 | 37639 ft | 449 kts | 319° |
| 2026-04-24 05:33 | -25.77046 | 152.69380 | 37851 ft | 449 kts | 319° |
| 2026-04-24 05:34 | -25.71979 | 152.65336 | 38228 ft | 449 kts | 319° |
| 2026-04-24 05:34 | -25.69431 | 152.63302 | 38220 ft | 452 kts | 319° |
| 2026-04-24 05:34 | -25.64343 | 152.59250 | 38209 ft | 448 kts | 319° |
| 2026-04-24 05:35 | -25.60135 | 152.55903 | 38190 ft | 446 kts | 319° |
| 2026-04-24 05:35 | -25.54306 | 152.51270 | 38196 ft | 442 kts | 319° |
| 2026-04-24 05:36 | -25.50141 | 152.47958 | 38219 ft | 446 kts | 319° |
| 2026-04-24 05:36 | -25.45049 | 152.43912 | 38217 ft | 453 kts | 319° |
| 2026-04-24 05:37 | -25.39900 | 152.39831 | 38211 ft | 455 kts | 319° |
| 2026-04-24 05:37 | -25.34731 | 152.35740 | 38204 ft | 457 kts | 319° |
| 2026-04-24 05:38 | -25.29590 | 152.31675 | 38206 ft | 457 kts | 319° |
| 2026-04-24 05:38 | -25.24416 | 152.27588 | 38200 ft | 456 kts | 319° |
| 2026-04-24 05:39 | -25.19263 | 152.23521 | 38198 ft | 454 kts | 319° |
| 2026-04-24 05:39 | -25.14129 | 152.19472 | 38202 ft | 452 kts | 319° |
| 2026-04-24 05:40 | -25.09017 | 152.15444 | 38196 ft | 450 kts | 319° |
| 2026-04-24 05:40 | -25.03954 | 152.11460 | 38198 ft | 448 kts | 319° |
| 2026-04-24 05:41 | -24.98884 | 152.07483 | 38201 ft | 447 kts | 319° |
| 2026-04-24 05:41 | -24.93821 | 152.03523 | 38198 ft | 446 kts | 319° |
| 2026-04-24 05:42 | -24.88767 | 151.99571 | 38203 ft | 445 kts | 319° |
| 2026-04-24 05:42 | -24.83712 | 151.95619 | 38197 ft | 445 kts | 319° |
| 2026-04-24 05:43 | -24.78654 | 151.91669 | 38179 ft | 446 kts | 319° |
| 2026-04-24 05:43 | -24.73579 | 151.87710 | 38195 ft | 448 kts | 319° |
| 2026-04-24 05:44 | -24.68505 | 151.83756 | 38201 ft | 450 kts | 319° |
| 2026-04-24 05:44 | -24.63382 | 151.79768 | 38200 ft | 452 kts | 319° |
| 2026-04-24 05:45 | -24.58235 | 151.75766 | 38197 ft | 453 kts | 319° |
| 2026-04-24 05:45 | -24.53082 | 151.71763 | 38191 ft | 454 kts | 319° |
| 2026-04-24 05:46 | -24.47941 | 151.67774 | 38200 ft | 455 kts | 319° |
| 2026-04-24 05:46 | -24.42767 | 151.63763 | 38192 ft | 455 kts | 319° |
| 2026-04-24 05:47 | -24.37594 | 151.59758 | 38187 ft | 454 kts | 319° |
| 2026-04-24 05:47 | -24.32423 | 151.55758 | 38196 ft | 454 kts | 319° |
| 2026-04-24 05:48 | -24.27299 | 151.51797 | 38172 ft | 453 kts | 319° |
| 2026-04-24 05:48 | -24.22137 | 151.47813 | 38183 ft | 452 kts | 319° |
| 2026-04-24 05:49 | -24.17001 | 151.43851 | 38184 ft | 451 kts | 319° |
| 2026-04-24 05:49 | -24.11866 | 151.39894 | 38191 ft | 450 kts | 319° |
| 2026-04-24 05:50 | -24.06775 | 151.35974 | 38188 ft | 450 kts | 319° |
| 2026-04-24 05:50 | -24.01655 | 151.32037 | 38178 ft | 449 kts | 319° |
| 2026-04-24 05:51 | -23.96541 | 151.28107 | 38189 ft | 449 kts | 319° |
| 2026-04-24 05:51 | -23.91433 | 151.24185 | 38207 ft | 448 kts | 319° |
| 2026-04-24 05:52 | -23.86323 | 151.20278 | 38235 ft | 449 kts | 320° |
| 2026-04-24 05:52 | -23.80990 | 151.16719 | 38223 ft | 453 kts | 323° |
| 2026-04-24 05:53 | -23.75515 | 151.13275 | 38207 ft | 454 kts | 323° |
| 2026-04-24 05:53 | -23.70039 | 151.09815 | 38199 ft | 455 kts | 323° |
| 2026-04-24 05:54 | -23.64569 | 151.06325 | 38198 ft | 455 kts | 323° |
| 2026-04-24 05:54 | -23.59105 | 151.02825 | 38185 ft | 455 kts | 323° |
| 2026-04-24 05:55 | -23.53681 | 150.99351 | 38193 ft | 455 kts | 323° |
| 2026-04-24 05:55 | -23.48211 | 150.95851 | 38191 ft | 456 kts | 323° |
| 2026-04-24 05:56 | -23.42738 | 150.92355 | 38193 ft | 456 kts | 323° |
| 2026-04-24 05:56 | -23.37256 | 150.88856 | 38193 ft | 457 kts | 323° |
| 2026-04-24 05:57 | -23.31767 | 150.85357 | 38191 ft | 457 kts | 323° |
| 2026-04-24 05:57 | -23.26274 | 150.81859 | 38188 ft | 457 kts | 322° |
| 2026-04-24 05:58 | -23.20810 | 150.78382 | 38192 ft | 457 kts | 323° |
| 2026-04-24 05:58 | -23.15310 | 150.74885 | 38180 ft | 457 kts | 322° |
| 2026-04-24 05:59 | -23.09823 | 150.71400 | 38189 ft | 457 kts | 322° |
| 2026-04-24 05:59 | -23.04333 | 150.67916 | 38198 ft | 457 kts | 322° |
| 2026-04-24 06:00 | -22.98836 | 150.64431 | 38195 ft | 457 kts | 322° |
| 2026-04-24 06:00 | -22.93337 | 150.60949 | 38186 ft | 457 kts | 322° |
| 2026-04-24 06:01 | -22.87832 | 150.57465 | 38190 ft | 459 kts | 322° |
| 2026-04-24 06:01 | -22.82349 | 150.53999 | 38195 ft | 460 kts | 322° |
| 2026-04-24 06:02 | -22.76824 | 150.50510 | 38190 ft | 460 kts | 322° |
| 2026-04-24 06:02 | -22.71294 | 150.47021 | 38187 ft | 460 kts | 322° |
| 2026-04-24 06:03 | -22.65770 | 150.43540 | 38132 ft | 460 kts | 322° |
| 2026-04-24 06:03 | -22.62975 | 150.41776 | 37644 ft | 465 kts | 322° |
| 2026-04-24 06:03 | -22.60184 | 150.40019 | 37087 ft | 462 kts | 322° |
| 2026-04-24 06:04 | -22.57450 | 150.38301 | 36545 ft | 459 kts | 322° |
| 2026-04-24 06:04 | -22.54692 | 150.36568 | 35926 ft | 459 kts | 322° |
| 2026-04-24 06:04 | -22.51923 | 150.34827 | 35265 ft | 459 kts | 322° |
| 2026-04-24 06:04 | -22.49154 | 150.33085 | 34599 ft | 460 kts | 322° |
| 2026-04-24 06:05 | -22.46383 | 150.31343 | 33841 ft | 462 kts | 322° |
| 2026-04-24 06:05 | -22.43608 | 150.29601 | 33249 ft | 459 kts | 322° |
| 2026-04-24 06:05 | -22.40862 | 150.27881 | 32730 ft | 454 kts | 322° |
| 2026-04-24 06:05 | -22.38144 | 150.26178 | 32226 ft | 449 kts | 322° |
| 2026-04-24 06:06 | -22.35454 | 150.24491 | 31751 ft | 445 kts | 322° |
| 2026-04-24 06:06 | -22.32784 | 150.22816 | 31235 ft | 441 kts | 322° |
| 2026-04-24 06:06 | -22.30144 | 150.21162 | 30772 ft | 437 kts | 322° |
| 2026-04-24 06:06 | -22.27519 | 150.19511 | 30307 ft | 432 kts | 321° |
| 2026-04-24 06:07 | -22.25113 | 150.17697 | 29767 ft | 421 kts | 313° |
| 2026-04-24 06:07 | -22.22909 | 150.15661 | 29252 ft | 414 kts | 312° |
| 2026-04-24 06:07 | -22.20756 | 150.13611 | 28768 ft | 409 kts | 311° |
| 2026-04-24 06:07 | -22.18634 | 150.11590 | 28278 ft | 405 kts | 312° |
| 2026-04-24 06:08 | -22.16513 | 150.09586 | 27810 ft | 402 kts | 312° |
| 2026-04-24 06:08 | -22.14410 | 150.07618 | 27344 ft | 398 kts | 312° |
| 2026-04-24 06:08 | -22.12315 | 150.05669 | 26889 ft | 395 kts | 313° |
| 2026-04-24 06:08 | -22.10266 | 150.03770 | 26438 ft | 392 kts | 313° |
| 2026-04-24 06:09 | -22.08199 | 150.01856 | 25988 ft | 389 kts | 313° |
| 2026-04-24 06:09 | -22.06150 | 149.99959 | 25542 ft | 387 kts | 313° |
| 2026-04-24 06:09 | -22.04112 | 149.98074 | 25098 ft | 384 kts | 313° |
| 2026-04-24 06:09 | -22.02090 | 149.96204 | 24655 ft | 382 kts | 313° |
| 2026-04-24 06:10 | -22.00071 | 149.94339 | 24204 ft | 381 kts | 313° |
| 2026-04-24 06:10 | -21.98063 | 149.92488 | 23745 ft | 379 kts | 313° |
| 2026-04-24 06:10 | -21.96059 | 149.90642 | 23238 ft | 377 kts | 314° |
| 2026-04-24 06:11 | -21.92098 | 149.86998 | 22317 ft | 371 kts | 314° |
| 2026-04-24 06:11 | -21.90168 | 149.85222 | 21886 ft | 369 kts | 314° |
| 2026-04-24 06:11 | -21.88223 | 149.83431 | 21453 ft | 366 kts | 314° |
| 2026-04-24 06:11 | -21.86295 | 149.81658 | 21029 ft | 364 kts | 315° |
| 2026-04-24 06:12 | -21.84374 | 149.79890 | 20607 ft | 362 kts | 315° |
| 2026-04-24 06:12 | -21.82462 | 149.78133 | 20191 ft | 360 kts | 315° |
| 2026-04-24 06:12 | -21.80561 | 149.76385 | 19774 ft | 359 kts | 315° |
| 2026-04-24 06:12 | -21.78665 | 149.74643 | 19360 ft | 357 kts | 315° |
| 2026-04-24 06:13 | -21.76778 | 149.72910 | 18954 ft | 356 kts | 316° |
| 2026-04-24 06:13 | -21.74890 | 149.71176 | 18525 ft | 356 kts | 316° |
| 2026-04-24 06:13 | -21.73009 | 149.69449 | 18058 ft | 355 kts | 316° |
| 2026-04-24 06:13 | -21.71154 | 149.67747 | 17622 ft | 353 kts | 315° |
| 2026-04-24 06:14 | -21.69290 | 149.66037 | 17196 ft | 351 kts | 316° |
| 2026-04-24 06:14 | -21.67435 | 149.64336 | 16784 ft | 349 kts | 316° |
| 2026-04-24 06:14 | -21.65589 | 149.62645 | 16377 ft | 348 kts | 316° |
| 2026-04-24 06:14 | -21.63752 | 149.60962 | 15974 ft | 346 kts | 316° |
| 2026-04-24 06:15 | -21.61859 | 149.59361 | 15565 ft | 346 kts | 322° |
| 2026-04-24 06:15 | -21.59863 | 149.57914 | 15170 ft | 346 kts | 324° |
| 2026-04-24 06:15 | -21.57841 | 149.56516 | 14778 ft | 345 kts | 325° |
| 2026-04-24 06:15 | -21.55818 | 149.55123 | 14381 ft | 344 kts | 325° |
| 2026-04-24 06:16 | -21.53805 | 149.53726 | 13962 ft | 344 kts | 324° |
| 2026-04-24 06:16 | -21.51800 | 149.52323 | 13522 ft | 344 kts | 325° |
| 2026-04-24 06:16 | -21.49826 | 149.50933 | 13107 ft | 342 kts | 325° |
| 2026-04-24 06:16 | -21.47839 | 149.49528 | 12697 ft | 341 kts | 325° |
| 2026-04-24 06:17 | -21.45859 | 149.48125 | 12295 ft | 340 kts | 326° |
| 2026-04-24 06:17 | -21.43892 | 149.46731 | 11903 ft | 338 kts | 326° |
| 2026-04-24 06:17 | -21.41925 | 149.45336 | 11505 ft | 337 kts | 326° |
| 2026-04-24 06:17 | -21.39969 | 149.43949 | 11117 ft | 336 kts | 326° |
| 2026-04-24 06:18 | -21.38013 | 149.42563 | 10608 ft | 339 kts | 327° |
| 2026-04-24 06:18 | -21.36065 | 149.41182 | 10373 ft | 332 kts | 327° |
| 2026-04-24 06:18 | -21.34176 | 149.39844 | 10182 ft | 324 kts | 327° |
| 2026-04-24 06:18 | -21.32315 | 149.38528 | 10042 ft | 315 kts | 327° |
| 2026-04-24 06:19 | -21.30488 | 149.37261 | 9739 ft | 312 kts | 332° |
| 2026-04-24 06:19 | -21.28518 | 149.36321 | 9399 ft | 309 kts | 341° |
| 2026-04-24 06:19 | -21.26495 | 149.35574 | 9078 ft | 306 kts | 343° |
| 2026-04-24 06:19 | -21.24474 | 149.34855 | 8750 ft | 305 kts | 343° |
| 2026-04-24 06:20 | -21.22464 | 149.34127 | 8419 ft | 303 kts | 343° |
| 2026-04-24 06:20 | -21.20477 | 149.33390 | 8119 ft | 302 kts | 343° |
| 2026-04-24 06:20 | -21.18499 | 149.32643 | 7806 ft | 300 kts | 342° |
| 2026-04-24 06:20 | -21.16533 | 149.31892 | 7491 ft | 299 kts | 342° |
| 2026-04-24 06:21 | -21.14600 | 149.31152 | 7184 ft | 298 kts | 342° |
| 2026-04-24 06:21 | -21.12646 | 149.30402 | 6868 ft | 298 kts | 342° |
| 2026-04-24 06:21 | -21.10751 | 149.29489 | 6502 ft | 301 kts | 325° |
| 2026-04-24 06:21 | -21.09250 | 149.27926 | 6198 ft | 300 kts | 313° |
| 2026-04-24 06:22 | -21.07838 | 149.26280 | 5865 ft | 299 kts | 313° |
| 2026-04-24 06:22 | -21.06434 | 149.24645 | 5549 ft | 298 kts | 313° |
| 2026-04-24 06:22 | -21.05039 | 149.23034 | 5454 ft | 287 kts | 313° |
| 2026-04-24 06:22 | -21.03713 | 149.21513 | 5342 ft | 272 kts | 314° |
| 2026-04-24 06:23 | -21.02451 | 149.20072 | 5103 ft | 264 kts | 314° |
| 2026-04-24 06:23 | -21.01228 | 149.18677 | 4972 ft | 250 kts | 314° |
| 2026-04-24 06:23 | -21.00041 | 149.17326 | 4883 ft | 248 kts | 314° |
| 2026-04-24 06:23 | -20.98934 | 149.15889 | 4750 ft | 254 kts | 297° |
| 2026-04-24 06:24 | -20.98587 | 149.14088 | 4600 ft | 246 kts | 261° |
| 2026-04-24 06:24 | -20.98878 | 149.12930 | 4340 ft | 243 kts | 241° |
| 2026-04-24 06:24 | -20.99688 | 149.11372 | 3993 ft | 236 kts | 233° |
| 2026-04-24 06:24 | -21.00630 | 149.09974 | 3627 ft | 226 kts | 217° |
| 2026-04-24 06:25 | -21.01950 | 149.09257 | 3329 ft | 207 kts | 185° |
| 2026-04-24 06:25 | -21.03352 | 149.09271 | 3046 ft | 199 kts | 163° |
| 2026-04-24 06:25 | -21.04615 | 149.09843 | 2763 ft | 196 kts | 145° |
| 2026-04-24 06:25 | -21.05767 | 149.10627 | 2480 ft | 196 kts | 145° |
| 2026-04-24 06:26 | -21.06916 | 149.11405 | 2244 ft | 199 kts | 146° |
| 2026-04-24 06:26 | -21.08085 | 149.12193 | 1942 ft | 198 kts | 146° |
| 2026-04-24 06:26 | -21.09246 | 149.12976 | 1663 ft | 195 kts | 147° |
| 2026-04-24 06:26 | -21.10382 | 149.13742 | 1385 ft | 189 kts | 146° |
| 2026-04-24 06:27 | -21.11474 | 149.14478 | 1134 ft | 181 kts | 146° |
| 2026-04-24 06:27 | -21.12496 | 149.15165 | 920 ft | 165 kts | 146° |
| 2026-04-24 06:27 | -21.13427 | 149.15792 | 694 ft | 153 kts | 146° |
| 2026-04-24 06:27 | -21.14302 | 149.16380 | 537 ft | 145 kts | 145° |
| 2026-04-24 06:28 | -21.15120 | 149.16937 | 366 ft | 133 kts | 143° |
| 2026-04-24 06:28 | -21.15871 | 149.17432 | 146 ft | 121 kts | 143° |
| 2026-04-24 06:28 | -21.16572 | 149.17912 | 28 ft | 116 kts | 145° |
| 2026-04-24 06:28 | -21.17098 | 149.18274 | 28 ft | 59 kts | 147° |
| 2026-04-24 06:29 | -21.17287 | 149.18400 | 26 ft | 12 kts | 149° |
| 2026-04-24 06:29 | -21.17345 | 149.18412 | 26 ft | 9 kts | 215° |
| 2026-04-24 06:29 | -21.17378 | 149.18363 | 24 ft | 4 kts | 237° |
| 2026-04-24 06:29 | -21.17382 | 149.18356 | 24 ft | 1 kts | 237° |
| 2026-04-24 06:30 | -21.17388 | 149.18346 | 23 ft | 2 kts | 236° |
| 2026-04-24 06:30 | -21.17398 | 149.18330 | 23 ft | 3 kts | 236° |
| 2026-04-24 06:30 | -21.17411 | 149.18310 | 24 ft | 4 kts | 236° |
| 2026-04-24 06:30 | -21.17426 | 149.18286 | 23 ft | 4 kts | 235° |
| 2026-04-24 06:31 | -21.17441 | 149.18262 | 22 ft | 3 kts | 236° |
| 2026-04-24 06:31 | -21.17448 | 149.18252 | 24 ft | 2 kts | 234° |
| 2026-04-24 06:31 | -21.17461 | 149.18243 | 25 ft | 3 kts | 199° |
| 2026-04-24 06:31 | -21.17491 | 149.18251 | 24 ft | 5 kts | 153° |
| 2026-04-24 06:32 | -21.17509 | 149.18260 | 22 ft | 3 kts | 167° |
| 2026-04-24 06:32 | -21.17523 | 149.18249 | 22 ft | 3 kts | 241° |
| 2026-04-24 06:32 | -21.17523 | 149.18235 | 23 ft | 1 kts | 278° |
| 2026-04-24 06:32 | -21.17522 | 149.18228 | 23 ft | 1 kts | 281° |
| 2026-04-24 06:33 | -21.17520 | 149.18221 | 23 ft | 1 kts | 283° |
| 2026-04-24 06:33 | -21.17519 | 149.18215 | 23 ft | 1 kts | 285° |
| 2026-04-24 06:33 | -21.17517 | 149.18209 | 23 ft | 1 kts | 286° |
| 2026-04-24 06:33 | -21.17517 | 149.18208 | 28 ft | 0 kts | 286° |
| 2026-04-24 06:34 | -21.17516 | 149.18207 | 28 ft | 0 kts | 286° |
| 2026-04-24 06:34 | -21.17516 | 149.18206 | 27 ft | 0 kts | 286° |